createdAt,value
2022-09-14T00:01:54.400Z,11.69
2022-09-14T00:04:24.239Z,11.66
2022-09-14T00:06:54.226Z,11.52
2022-09-14T00:09:24.054Z,11.46
2022-09-14T00:11:55.471Z,11.52
2022-09-14T00:14:25.491Z,11.52
2022-09-14T00:16:53.300Z,11.34
2022-09-14T00:19:25.309Z,11.36
2022-09-14T00:21:56.979Z,11.26
2022-09-14T00:24:25.952Z,11.32
2022-09-14T00:26:57.589Z,11.33
2022-09-14T00:29:27.791Z,11.32
2022-09-14T00:31:55.674Z,11.24
2022-09-14T00:34:32.543Z,11.16
2022-09-14T00:37:00.344Z,11.29
2022-09-14T00:39:29.110Z,10.95
2022-09-14T00:42:02.503Z,11.09
2022-09-14T00:45:08.192Z,10.97
2022-09-14T00:47:38.614Z,11.00
2022-09-14T00:50:09.066Z,10.76
2022-09-14T00:52:38.347Z,10.92
2022-09-14T00:55:10.787Z,10.96
2022-09-14T00:57:45.137Z,10.88
2022-09-14T01:00:22.396Z,10.93
2022-09-14T01:02:50.844Z,10.92
2022-09-14T01:05:20.255Z,11.00
2022-09-14T01:08:10.569Z,10.96
2022-09-14T01:10:52.021Z,10.75
2022-09-14T01:13:31.136Z,10.82
2022-09-14T01:16:08.675Z,10.76
2022-09-14T01:18:40.382Z,10.76
2022-09-14T01:21:15.828Z,10.82
2022-09-14T01:23:52.597Z,10.78
2022-09-14T01:26:58.269Z,10.84
2022-09-14T01:29:34.523Z,10.81
2022-09-14T01:32:09.437Z,10.94
2022-09-14T01:34:43.819Z,10.89
2022-09-14T01:37:18.550Z,10.95
2022-09-14T01:39:53.031Z,11.05
2022-09-14T01:42:27.545Z,10.93
2022-09-14T01:45:03.099Z,11.03
2022-09-14T01:47:39.200Z,10.98
2022-09-14T01:50:14.300Z,11.00
2022-09-14T01:52:47.715Z,10.93
2022-09-14T01:55:21.247Z,10.98
2022-09-14T01:57:55.866Z,11.04
2022-09-14T02:00:27.313Z,10.98
2022-09-14T02:03:01.800Z,10.94
2022-09-14T02:05:36.732Z,10.82
2022-09-14T02:08:05.296Z,10.82
2022-09-14T02:10:34.896Z,10.87
2022-09-14T02:13:04.965Z,10.94
2022-09-14T02:15:37.164Z,10.99
2022-09-14T02:18:09.406Z,11.04
2022-09-14T02:20:42.978Z,11.09
2022-09-14T02:23:14.797Z,11.21
2022-09-14T02:25:42.717Z,11.22
2022-09-14T02:28:10.543Z,11.18
2022-09-14T02:30:53.294Z,11.17
2022-09-14T02:33:30.802Z,11.22
2022-09-14T02:36:07.656Z,11.16
2022-09-14T02:38:46.839Z,11.17
2022-09-14T02:41:22.007Z,11.14
2022-09-14T02:43:55.183Z,11.11
2022-09-14T02:46:36.523Z,11.07
2022-09-14T02:49:12.586Z,11.18
2022-09-14T02:51:49.069Z,11.26
2022-09-14T02:54:26.360Z,11.22
2022-09-14T02:56:54.217Z,11.39
2022-09-14T02:59:24.200Z,11.20
2022-09-14T03:01:53.770Z,11.19
2022-09-14T03:04:23.547Z,11.14
2022-09-14T03:06:51.488Z,11.06
2022-09-14T03:09:19.885Z,11.14
2022-09-14T03:11:49.541Z,11.22
2022-09-14T03:14:19.573Z,11.21
2022-09-14T03:16:47.390Z,11.13
2022-09-14T03:19:20.418Z,11.00
2022-09-14T03:21:48.250Z,11.02
2022-09-14T03:24:15.992Z,10.99
2022-09-14T03:26:49.587Z,11.08
2022-09-14T03:29:17.399Z,10.93
2022-09-14T03:31:45.281Z,10.98
2022-09-14T03:34:20.526Z,10.71
2022-09-14T03:36:48.360Z,10.66
2022-09-14T03:39:18.341Z,10.66
2022-09-14T03:41:48.014Z,10.67
2022-09-14T03:44:15.770Z,10.75
2022-09-14T03:46:46.105Z,10.67
2022-09-14T03:49:14.048Z,10.72
2022-09-14T03:51:43.213Z,10.80
2022-09-14T03:54:13.191Z,10.63
2022-09-14T03:56:42.795Z,10.67
2022-09-14T03:59:10.725Z,10.78
2022-09-14T04:01:41.243Z,10.77
2022-09-14T04:04:10.745Z,10.79
2022-09-14T04:06:38.547Z,10.73
2022-09-14T04:09:09.585Z,10.62
2022-09-14T04:11:39.591Z,10.51
2022-09-14T04:14:08.417Z,10.56
2022-09-14T04:16:38.575Z,10.56
2022-09-14T04:19:08.377Z,10.56
2022-09-14T04:21:38.354Z,10.65
2022-09-14T04:24:15.147Z,10.69
2022-09-14T04:26:48.771Z,10.51
2022-09-14T04:29:16.814Z,10.39
2022-09-14T04:31:44.743Z,10.38
2022-09-14T04:34:16.790Z,10.47
2022-09-14T04:36:46.834Z,10.53
2022-09-14T04:39:16.322Z,10.35
2022-09-14T04:41:46.070Z,10.23
2022-09-14T04:44:16.527Z,10.18
2022-09-14T04:46:46.968Z,10.12
2022-09-14T04:49:16.856Z,10.12
2022-09-14T04:51:46.953Z,10.12
2022-09-14T04:54:17.749Z,9.97
2022-09-14T04:56:46.132Z,9.97
2022-09-14T04:59:33.477Z,9.74
2022-09-14T05:02:01.319Z,9.70
2022-09-14T05:04:29.306Z,9.62
2022-09-14T05:07:04.209Z,9.50
2022-09-14T05:09:33.380Z,9.59
2022-09-14T05:12:01.163Z,9.54
2022-09-14T05:14:33.150Z,9.50
2022-09-14T05:17:03.121Z,9.53
2022-09-14T05:19:31.160Z,9.69
2022-09-14T05:22:05.356Z,9.75
2022-09-14T05:24:34.522Z,9.67
2022-09-14T05:27:02.471Z,9.71
2022-09-14T05:29:34.392Z,9.50
2022-09-14T05:32:02.318Z,9.82
2022-09-14T05:34:30.100Z,9.90
2022-09-14T05:37:02.042Z,9.75
2022-09-14T05:39:29.833Z,9.80
2022-09-14T05:41:58.963Z,9.99
2022-09-14T05:44:30.970Z,9.97
2022-09-14T05:46:58.795Z,10.01
2022-09-14T05:49:26.616Z,10.16
2022-09-14T05:51:58.447Z,10.01
2022-09-14T05:54:26.674Z,9.71
2022-09-14T05:56:54.439Z,9.74
2022-09-14T05:59:23.930Z,9.89
2022-09-14T06:01:51.779Z,9.96
2022-09-14T06:04:19.763Z,9.97
2022-09-14T06:07:07.962Z,9.91
2022-09-14T06:09:39.568Z,9.86
2022-09-14T06:12:11.553Z,9.77
2022-09-14T06:14:40.828Z,9.82
2022-09-14T06:17:08.596Z,9.80
2022-09-14T06:19:40.510Z,9.89
2022-09-14T06:22:08.266Z,9.87
2022-09-14T06:24:38.462Z,9.89
2022-09-14T06:27:10.792Z,9.90
2022-09-14T06:29:39.966Z,10.01
2022-09-14T06:32:10.250Z,10.09
2022-09-14T06:34:39.888Z,10.30
2022-09-14T06:37:07.632Z,10.63
2022-09-14T06:39:39.882Z,10.65
2022-09-14T06:42:09.649Z,10.92
2022-09-14T06:44:37.464Z,11.05
2022-09-14T06:47:08.650Z,11.58
2022-09-14T06:49:36.545Z,11.75
2022-09-14T06:52:04.386Z,11.65
2022-09-14T06:54:34.465Z,11.59
2022-09-14T06:57:04.078Z,11.58
2022-09-14T06:59:31.825Z,11.57
2022-09-14T07:01:59.893Z,11.91
2022-09-14T07:04:31.006Z,11.89
2022-09-14T07:06:58.833Z,12.18
2022-09-14T07:09:29.007Z,12.21
2022-09-14T07:11:58.648Z,12.41
2022-09-14T07:14:30.373Z,12.71
2022-09-14T07:17:04.019Z,13.32
2022-09-14T07:19:33.239Z,12.76
2022-09-14T07:22:01.908Z,12.63
2022-09-14T07:24:33.852Z,11.88
2022-09-14T07:27:01.655Z,12.10
2022-09-14T07:29:29.474Z,11.91
2022-09-14T07:31:59.700Z,12.39
2022-09-14T07:34:27.494Z,12.29
2022-09-14T07:36:56.852Z,12.22
2022-09-14T07:39:27.042Z,12.37
2022-09-14T07:41:54.881Z,12.33
2022-09-14T07:44:22.632Z,11.86
2022-09-14T07:46:53.102Z,12.14
2022-09-14T07:49:22.109Z,12.18
2022-09-14T07:51:50.755Z,12.35
2022-09-14T07:54:20.416Z,12.00
2022-09-14T07:56:49.448Z,11.92
2022-09-14T07:59:35.185Z,11.90
2022-09-14T08:02:09.041Z,11.91
2022-09-14T08:04:37.802Z,11.88
2022-09-14T08:07:09.133Z,11.64
2022-09-14T08:09:39.047Z,11.81
2022-09-14T08:12:06.963Z,11.53
2022-09-14T08:14:35.059Z,11.51
2022-09-14T08:17:04.861Z,11.91
2022-09-14T08:19:32.795Z,11.90
2022-09-14T08:22:03.011Z,12.26
2022-09-14T08:24:33.492Z,11.73
2022-09-14T08:27:02.620Z,11.81
2022-09-14T08:29:30.584Z,11.48
2022-09-14T08:32:00.618Z,11.68
2022-09-14T08:34:39.329Z,12.13
2022-09-14T08:37:07.284Z,12.17
2022-09-14T08:39:36.904Z,12.14
2022-09-14T08:42:07.168Z,12.51
2022-09-14T08:44:42.098Z,12.64
2022-09-14T08:47:14.884Z,12.67
2022-09-14T08:49:49.684Z,12.74
2022-09-14T08:52:25.275Z,12.66
2022-09-14T08:54:58.105Z,12.80
2022-09-14T08:57:36.420Z,12.68
2022-09-14T09:00:11.025Z,12.60
2022-09-14T09:03:08.894Z,11.86
2022-09-14T09:05:43.671Z,11.71
2022-09-14T09:08:20.702Z,11.35
2022-09-14T09:10:54.107Z,11.02
2022-09-14T09:13:40.084Z,11.03
2022-09-14T09:16:16.431Z,11.39
2022-09-14T09:18:48.517Z,11.71
2022-09-14T09:21:22.969Z,11.58
2022-09-14T09:23:51.168Z,11.86
2022-09-14T09:26:31.147Z,12.25
2022-09-14T09:29:07.200Z,12.60
2022-09-14T09:31:40.621Z,12.47
2022-09-14T09:34:13.483Z,12.90
2022-09-14T09:36:50.153Z,13.37
2022-09-14T09:39:20.639Z,13.01
2022-09-14T09:41:49.610Z,13.32
2022-09-14T09:44:22.869Z,13.52
2022-09-14T09:46:54.704Z,12.93
2022-09-14T09:49:29.307Z,12.98
2022-09-14T09:52:07.287Z,12.55
2022-09-14T09:54:41.077Z,12.90
2022-09-14T09:57:22.772Z,12.79
2022-09-14T10:00:15.823Z,13.10
2022-09-14T10:02:45.037Z,13.12
2022-09-14T10:05:24.595Z,13.04
2022-09-14T10:07:57.130Z,12.55
2022-09-14T10:10:43.080Z,12.83
2022-09-14T10:13:24.259Z,12.90
2022-09-14T10:16:07.970Z,12.67
2022-09-14T10:18:36.452Z,13.04
2022-09-14T10:21:10.959Z,13.33
2022-09-14T10:23:39.805Z,13.33
2022-09-14T10:26:38.884Z,13.51
2022-09-14T10:29:40.890Z,13.37
2022-09-14T10:32:22.926Z,13.96
2022-09-14T10:34:52.218Z,13.69
2022-09-14T10:37:33.900Z,13.84
2022-09-14T10:40:19.668Z,14.27
2022-09-14T10:43:03.220Z,14.06
2022-09-14T10:45:37.102Z,14.02
2022-09-14T10:48:47.923Z,13.70
2022-09-14T10:51:42.520Z,13.99
2022-09-14T10:54:25.968Z,14.15
2022-09-14T10:57:15.017Z,14.44
2022-09-14T10:59:57.717Z,14.36
2022-09-14T11:02:45.237Z,14.91
2022-09-14T11:05:23.172Z,14.66
2022-09-14T11:08:08.051Z,14.41
2022-09-14T11:10:55.918Z,14.67
2022-09-14T11:13:48.183Z,14.67
2022-09-14T11:16:42.459Z,14.60
2022-09-14T11:19:20.777Z,14.86
2022-09-14T11:21:59.990Z,14.49
2022-09-14T11:24:37.618Z,14.30
2022-09-14T11:27:11.940Z,13.96
2022-09-14T11:29:46.602Z,13.66
2022-09-14T11:32:22.587Z,13.87
2022-09-14T11:34:52.330Z,13.90
2022-09-14T11:37:30.693Z,14.02
2022-09-14T11:40:06.778Z,14.07
2022-09-14T11:42:42.109Z,13.78
2022-09-14T11:45:20.468Z,13.98
2022-09-14T11:48:00.916Z,14.17
2022-09-14T11:50:29.455Z,14.08
2022-09-14T11:53:05.792Z,14.59
2022-09-14T11:55:36.073Z,14.43
2022-09-14T11:58:10.326Z,14.07
2022-09-14T12:01:12.936Z,14.06
2022-09-14T12:03:55.268Z,14.34
2022-09-14T12:06:50.400Z,14.27
2022-09-14T12:09:41.934Z,14.47
2022-09-14T12:12:39.057Z,14.29
2022-09-14T12:15:25.922Z,14.69
2022-09-14T12:18:15.110Z,14.87
2022-09-14T12:20:55.022Z,14.93
2022-09-14T12:23:42.868Z,15.46
2022-09-14T12:26:37.512Z,15.54
2022-09-14T12:29:28.760Z,15.32
2022-09-14T12:32:20.870Z,15.16
2022-09-14T12:35:27.195Z,14.77
2022-09-14T12:37:55.243Z,14.65
2022-09-14T12:40:38.128Z,14.66
2022-09-14T12:43:48.192Z,14.60
2022-09-14T12:46:50.491Z,14.19
2022-09-14T12:49:46.145Z,14.20
2022-09-14T12:52:31.390Z,13.74
2022-09-14T12:55:17.940Z,13.65
2022-09-14T12:57:52.617Z,13.54
2022-09-14T13:00:24.682Z,13.63
2022-09-14T13:03:18.880Z,13.96
2022-09-14T13:05:51.217Z,14.33
2022-09-14T13:08:24.654Z,14.27
2022-09-14T13:10:56.678Z,14.05
2022-09-14T13:13:33.289Z,14.14
2022-09-14T13:16:08.748Z,14.41
2022-09-14T13:18:39.129Z,14.48
2022-09-14T13:21:21.791Z,14.33
2022-09-14T13:23:49.961Z,14.38
2022-09-14T13:26:20.953Z,14.46
2022-09-14T13:28:54.129Z,14.32
2022-09-14T13:31:29.021Z,14.12
2022-09-14T13:34:01.741Z,14.00
2022-09-14T13:36:32.968Z,13.78
2022-09-14T13:39:05.097Z,13.85
2022-09-14T13:41:57.707Z,14.07
2022-09-14T13:44:30.581Z,14.25
2022-09-14T13:47:04.775Z,14.07
2022-09-14T13:49:38.607Z,14.56
2022-09-14T13:52:43.607Z,14.41
2022-09-14T13:55:33.015Z,14.63
2022-09-14T13:58:14.909Z,14.49
2022-09-14T14:00:56.237Z,14.28
2022-09-14T14:03:36.663Z,14.15
2022-09-14T14:06:17.787Z,14.18
2022-09-14T14:08:45.797Z,13.78
2022-09-14T14:11:13.692Z,13.85
2022-09-14T14:13:42.000Z,13.93
2022-09-14T14:16:22.141Z,13.99
2022-09-14T14:18:56.836Z,14.05
2022-09-14T14:21:35.747Z,13.99
2022-09-14T14:24:27.855Z,14.19
2022-09-14T14:26:57.977Z,14.35
2022-09-14T14:29:26.835Z,14.30
2022-09-14T14:32:01.924Z,14.38
2022-09-14T14:34:30.973Z,14.32
2022-09-14T14:37:02.535Z,14.63
2022-09-14T14:39:30.365Z,14.53
2022-09-14T14:41:58.626Z,14.39
2022-09-14T14:44:31.757Z,14.27
2022-09-14T14:46:59.738Z,14.56
2022-09-14T14:49:27.818Z,14.87
2022-09-14T14:52:00.567Z,14.90
2022-09-14T14:54:32.274Z,14.97
2022-09-14T14:57:02.847Z,15.28
2022-09-14T14:59:34.068Z,15.06
2022-09-14T15:02:07.895Z,14.84
2022-09-14T15:04:35.809Z,14.87
2022-09-14T15:07:03.750Z,14.75
2022-09-14T15:10:19.355Z,14.85
2022-09-14T15:12:57.193Z,14.64
2022-09-14T15:15:55.758Z,14.76
2022-09-14T15:18:56.418Z,15.01
2022-09-14T15:21:29.853Z,14.91
2022-09-14T15:24:09.732Z,14.97
2022-09-14T15:26:43.740Z,15.09
2022-09-14T15:29:14.315Z,15.11
2022-09-14T15:31:50.282Z,15.16
2022-09-14T15:34:30.252Z,14.85
2022-09-14T15:37:01.731Z,14.87
2022-09-14T15:39:33.508Z,14.65
2022-09-14T15:42:05.597Z,14.64
2022-09-14T15:44:35.743Z,14.56
2022-09-14T15:47:03.999Z,14.44
2022-09-14T15:49:35.292Z,14.43
2022-09-14T15:52:05.777Z,14.55
2022-09-14T15:54:34.303Z,14.58
2022-09-14T15:57:19.515Z,14.50
2022-09-14T15:59:48.035Z,14.54
2022-09-14T16:02:17.039Z,14.48
2022-09-14T16:04:52.189Z,14.40
2022-09-14T16:07:21.067Z,14.33
2022-09-14T16:09:51.273Z,14.39
2022-09-14T16:12:22.034Z,14.47
2022-09-14T16:14:53.081Z,14.41
2022-09-14T16:17:26.315Z,14.16
2022-09-14T16:19:57.210Z,14.33
2022-09-14T16:22:28.195Z,14.39
2022-09-14T16:24:57.432Z,14.11
2022-09-14T16:27:27.767Z,14.05
2022-09-14T16:29:55.797Z,14.08
2022-09-14T16:32:23.813Z,14.11
2022-09-14T16:34:54.056Z,14.15
2022-09-14T16:37:22.719Z,14.13
2022-09-14T16:39:50.612Z,14.13
2022-09-14T16:42:22.143Z,14.02
2022-09-14T16:44:52.185Z,14.16
2022-09-14T16:47:19.960Z,13.90
2022-09-14T16:49:52.305Z,13.84
2022-09-14T16:52:20.176Z,13.91
2022-09-14T16:54:48.322Z,13.89
2022-09-14T16:57:23.311Z,13.98
2022-09-14T16:59:53.146Z,13.90
2022-09-14T17:02:28.998Z,13.84
2022-09-14T17:04:56.950Z,13.83
2022-09-14T17:07:25.185Z,13.78
2022-09-14T17:09:57.993Z,13.85
2022-09-14T17:12:29.593Z,13.63
2022-09-14T17:15:01.548Z,13.81
2022-09-14T17:17:33.087Z,13.70
2022-09-14T17:20:06.092Z,13.58
2022-09-14T17:22:38.766Z,13.58
2022-09-14T17:25:08.974Z,13.61
2022-09-14T17:27:38.762Z,13.58
2022-09-14T17:30:13.982Z,13.41
2022-09-14T17:35:36.658Z,13.44
2022-09-14T17:38:05.232Z,13.34
2022-09-14T17:40:39.046Z,13.41
2022-09-14T17:43:07.286Z,13.57
2022-09-14T17:45:37.598Z,13.48
2022-09-14T17:48:11.048Z,13.35
2022-09-14T17:50:43.269Z,13.32
2022-09-14T17:53:15.863Z,13.59
2022-09-14T17:55:50.748Z,13.57
2022-09-14T17:58:21.316Z,13.56
2022-09-14T18:00:51.096Z,13.35
2022-09-14T18:03:19.297Z,13.29
2022-09-14T18:05:57.705Z,13.28
2022-09-14T18:08:26.193Z,13.30
2022-09-14T18:10:58.101Z,13.19
2022-09-14T18:13:28.049Z,13.04
2022-09-14T18:16:03.912Z,13.00
2022-09-14T18:18:32.620Z,12.97
2022-09-14T18:21:01.054Z,12.97
2022-09-14T18:23:31.479Z,12.94
2022-09-14T18:26:01.491Z,13.06
2022-09-14T18:28:30.603Z,12.98
2022-09-14T18:31:06.394Z,12.90
2022-09-14T18:33:35.881Z,12.80
2022-09-14T18:36:11.459Z,12.60
2022-09-14T18:38:39.769Z,12.60
2022-09-14T18:41:10.817Z,12.57
2022-09-14T18:43:46.956Z,12.66
2022-09-14T18:46:17.843Z,12.42
2022-09-14T18:48:46.870Z,12.57
2022-09-14T18:51:16.461Z,12.58
2022-09-14T18:53:56.444Z,12.54
2022-09-14T18:56:27.225Z,12.30
2022-09-14T18:58:55.963Z,12.29
2022-09-14T19:01:25.592Z,12.28
2022-09-14T19:03:58.118Z,12.38
2022-09-14T19:06:28.791Z,12.41
2022-09-14T19:08:57.171Z,12.28
2022-09-14T19:11:30.599Z,12.35
2022-09-14T19:14:02.563Z,12.42
2022-09-14T19:16:36.070Z,12.37
2022-09-14T19:19:05.285Z,12.30
2022-09-14T19:21:33.423Z,12.23
2022-09-14T19:24:04.242Z,12.35
2022-09-14T19:26:36.065Z,12.32
2022-09-14T19:29:11.544Z,12.39
2022-09-14T19:31:44.116Z,12.15
2022-09-14T19:34:25.625Z,12.10
2022-09-14T19:36:56.861Z,12.11
2022-09-14T19:39:32.923Z,12.06
2022-09-14T19:42:04.646Z,11.99
2022-09-14T19:44:34.676Z,11.74
2022-09-14T19:47:13.802Z,11.79
2022-09-14T19:49:44.781Z,11.70
2022-09-14T19:52:15.030Z,11.55
2022-09-14T19:54:43.286Z,11.38
2022-09-14T19:57:13.508Z,11.30
2022-09-14T19:59:43.673Z,11.12
2022-09-14T20:02:13.393Z,11.12
2022-09-14T20:04:41.519Z,10.95
2022-09-14T20:07:13.629Z,10.92
2022-09-14T20:09:41.606Z,10.98
2022-09-14T20:12:09.790Z,11.00
2022-09-14T20:14:42.018Z,10.92
2022-09-14T20:17:10.107Z,10.90
2022-09-14T20:19:39.897Z,10.80
2022-09-14T20:22:27.530Z,10.79
2022-09-14T20:24:55.910Z,10.74
2022-09-14T20:27:34.137Z,10.84
2022-09-14T20:30:02.113Z,10.74
2022-09-14T20:32:51.303Z,10.73
2022-09-14T20:35:42.510Z,10.74
2022-09-14T20:38:16.288Z,10.68
2022-09-14T20:40:45.684Z,10.52
2022-09-14T20:43:26.645Z,10.44
2022-09-14T20:46:08.671Z,10.51
2022-09-14T20:48:45.061Z,10.47
2022-09-14T20:51:19.933Z,10.51
2022-09-14T20:53:58.309Z,10.41
2022-09-14T20:56:31.864Z,10.39
2022-09-14T20:59:02.134Z,10.54
2022-09-14T21:01:36.386Z,10.36
2022-09-14T21:04:11.542Z,10.28
2022-09-14T21:06:50.829Z,10.35
2022-09-14T21:09:19.999Z,10.32
2022-09-14T21:11:48.883Z,10.27
2022-09-14T21:14:27.905Z,10.05
2022-09-14T21:16:57.970Z,10.10
2022-09-14T21:19:33.325Z,10.01
2022-09-14T21:22:03.309Z,10.03
2022-09-14T21:24:37.256Z,9.96
2022-09-14T21:27:07.959Z,9.86
2022-09-14T21:29:40.867Z,9.68
2022-09-14T21:32:09.846Z,9.75
2022-09-14T21:34:38.098Z,9.62
2022-09-14T21:37:13.088Z,9.55
2022-09-14T21:39:41.311Z,9.55
2022-09-14T21:42:09.415Z,9.67
2022-09-14T21:44:39.336Z,9.76
2022-09-14T21:47:09.515Z,9.62
2022-09-14T21:49:37.488Z,9.54
2022-09-14T21:52:08.430Z,9.63
2022-09-14T21:54:38.607Z,9.68
2022-09-14T21:57:07.121Z,9.68
2022-09-14T21:59:37.130Z,9.73
2022-09-14T22:02:07.777Z,9.68
2022-09-14T22:04:35.911Z,9.68
2022-09-14T22:07:05.974Z,9.54
2022-09-14T22:09:35.484Z,9.49
2022-09-14T22:12:03.646Z,9.42
2022-09-14T22:14:33.611Z,9.57
2022-09-14T22:17:03.651Z,9.44
2022-09-14T22:19:32.568Z,9.40
2022-09-14T22:22:03.052Z,9.21
2022-09-14T22:24:37.486Z,9.36
2022-09-14T22:27:10.620Z,9.27
2022-09-14T22:29:42.015Z,9.25
2022-09-14T22:32:13.896Z,9.29
2022-09-14T22:34:45.497Z,9.37
2022-09-14T22:37:17.634Z,9.31
2022-09-14T22:39:48.290Z,9.29
2022-09-14T22:42:17.540Z,9.40
2022-09-14T22:44:49.821Z,9.35
2022-09-14T22:47:20.553Z,9.50
2022-09-14T22:49:51.043Z,9.48
2022-09-14T22:52:19.478Z,9.58
2022-09-14T22:54:49.521Z,9.55
2022-09-14T22:57:20.657Z,9.61
2022-09-14T22:59:48.725Z,9.41
2022-09-14T23:02:19.058Z,9.43
2022-09-14T23:04:50.455Z,9.44
2022-09-14T23:07:20.191Z,9.22
2022-09-14T23:09:50.142Z,9.23
2022-09-14T23:12:21.705Z,9.32
2022-09-14T23:14:49.612Z,9.29
2022-09-14T23:17:23.471Z,9.26
2022-09-14T23:19:51.594Z,9.33
2022-09-14T23:22:19.562Z,9.30
2022-09-14T23:24:53.048Z,9.34
2022-09-14T23:27:22.693Z,9.15
2022-09-14T23:29:57.962Z,9.09
2022-09-14T23:32:26.056Z,9.17
2022-09-14T23:35:01.265Z,9.10
2022-09-14T23:37:30.864Z,9.12
2022-09-14T23:40:05.169Z,9.08
2022-09-14T23:42:42.339Z,9.03
2022-09-14T23:45:16.321Z,9.04
2022-09-14T23:47:48.050Z,8.98
2022-09-14T23:50:18.211Z,8.77
2022-09-14T23:52:51.398Z,8.69
2022-09-14T23:55:22.696Z,8.74
2022-09-14T23:58:00.028Z,8.74
